EGLCLPAZ

Guest
Details From EGLC - London City
To LPAZ - Santa Maria
Flight Number -
Tags Generated
Created
Modified
Stats Distance 1,381 nm / 2,557 km
Max Altitude 0 ft / 0 m
Waypoints 4
Social Downloads 0
Likes 0
Share VATSIM

Download

Looking for another format? Having issues loading an existing format? Contact us
Advertisement - Login to hide

Notes

Generated

Route

EGLC NAKID R2459 LPAZ

ID Type Via Altitude Latitude Longitude Leg Dist Tot Dist Heading (true) Name
O EGLC APT - 0 ft / 0 m 51.50558˚ 0.04414˚ - 0 nm - -
NAKID FIX - 0 ft / 0 m 49.71500˚ -4.62306˚ 207 nm 207 nm 241° / 237° -
R2459 FIX - 0 ft / 0 m 36.98500˚ -25.17333˚ 1172 nm 1379 nm 237° / 223° -
O LPAZ APT - 0 ft / 0 m 36.97389˚ -25.17583˚ 0 nm 1380 nm 190° / 190° -

Altitude Profile

Advertisement - Login to hide

Weather


0- 5 10 15 20 25 30 35+ Temperature / ° C

Clouds and Precipitation
Forecast for 2017-12-13 18:00 UTC. Updated 2 hours ago

Ground ~20,000 ft ~40,000 ft Winds

EGLC

Details ICAO EGLC (LCY)
Name London City
Region United Kingdom
Timezone Europe/London (UTC+0.0)
Stats Elevation 19 ft / 6 m (AMSL)
Location 51.505231° 0.055175°
Runways 1
Magnetic Variation 0.385° W

METAR

EGLC 131650Z AUTO 28016KT 9999 FEW029 08/03 Q0991

Decode

TAF

Not found

Departure Runways

ID Width Length Bearing (true) Bearing (mag) Surface Threshold Offset Overrun Length
09 98 ft / 30 m 4,931 ft / 1,503 m 92.89° 93.27° Concrete 322 ft / 98 m 164 ft / 50 m
27 98 ft / 30 m 4,931 ft / 1,503 m 272.91° 273.29° Concrete 243 ft / 74 m 279 ft / 85 m

LPAZ

Details ICAO LPAZ (SMA)
Name SANTA MARIA
Region Portugal
Timezone Atlantic/Azores (UTC-1.0)
Stats Elevation 308 ft / 94 m (AMSL)
Location 36.972732° -25.170532°
Runways 3
Magnetic Variation 8.135° W

METAR

LPAZ 131700Z 33003KT 290V010 9999 FEW020 BKN022 18/14 Q1033

Decode

TAF

TAF LPAZ 131100Z 1312/1418 VRB05KT 9999 FEW018 BKN025 PROB30 TEMPO 1312/1409 8000 -RA FEW008 BKN015 BECMG 1315/1318 30008KT BECMG 1400/1403 27007KT BECMG 1413/1415 30010KT SCT015

Decode

Destination Runways

ID Width Length Bearing (true) Bearing (mag) Surface Threshold Offset Overrun Length
04 148 ft / 45 m 4,351 ft / 1,326 m 27.72° 35.86° Asphalt 0 ft / 0 m 210 ft / 64 m
15 148 ft / 45 m 6,061 ft / 1,847 m 135.98° 144.12° Asphalt 0 ft / 0 m 210 ft / 64 m
18 197 ft / 60 m 10,058 ft / 3,066 m 170.97° 179.11° Concrete 0 ft / 0 m 1,000 ft / 305 m
22 148 ft / 45 m 4,351 ft / 1,326 m 207.73° 215.87° Asphalt 0 ft / 0 m 125 ft / 38 m
33 148 ft / 45 m 6,061 ft / 1,847 m 315.99° 324.13° Asphalt 0 ft / 0 m 625 ft / 191 m
36 197 ft / 60 m 10,058 ft / 3,066 m 350.97° 359.11° Concrete 0 ft / 0 m 1,000 ft / 305 m

Approach Navaids

Runway Type Ident Frequency Range Bearing (true) Bearing (mag) Slope Elevation
18 Localiser MA 110.30 MHz 18 nm / 33 km 170.95° 179.08° - 279 ft / 85 m (AMSL)
18 Glidescope MA 110.30 MHz 10 nm / 19 km 170.97° 179.10° 2.75° 284 ft / 87 m (AMSL)

Popular Alternatives